createdAt,value
2023-02-24T00:01:49.462Z,15.18
2023-02-24T00:04:15.826Z,16.10
2023-02-24T00:06:43.675Z,15.30
2023-02-24T00:09:15.411Z,15.07
2023-02-24T00:11:44.824Z,14.52
2023-02-24T00:14:15.882Z,14.82
2023-02-24T00:16:43.907Z,15.25
2023-02-24T00:19:13.146Z,14.68
2023-02-24T00:21:40.285Z,15.98
2023-02-24T00:24:07.021Z,14.20
2023-02-24T00:26:33.604Z,13.50
2023-02-24T00:29:03.258Z,14.48
2023-02-24T00:31:31.044Z,14.18
2023-02-24T00:33:59.157Z,13.73
2023-02-24T00:36:26.658Z,13.05
2023-02-24T00:38:59.092Z,15.00
2023-02-24T00:41:30.035Z,13.98
2023-02-24T00:43:58.565Z,13.73
2023-02-24T00:46:26.415Z,13.50
2023-02-24T00:48:56.699Z,13.70
2023-02-24T00:51:25.364Z,15.07
2023-02-24T00:53:59.668Z,12.82
2023-02-24T00:56:27.835Z,15.30
2023-02-24T00:58:55.515Z,14.68
2023-02-24T01:01:24.312Z,12.60
2023-02-24T01:03:54.512Z,12.02
2023-02-24T01:06:22.217Z,11.45
2023-02-24T01:08:49.844Z,12.90
2023-02-24T01:11:39.504Z,12.75
2023-02-24T01:14:11.487Z,12.00
2023-02-24T01:16:37.879Z,11.20
2023-02-24T01:19:07.881Z,12.30
2023-02-24T01:21:34.668Z,14.15
2023-02-24T01:24:01.199Z,11.50
2023-02-24T01:26:27.682Z,11.63
2023-02-24T01:28:55.598Z,12.50
2023-02-24T01:31:23.732Z,11.73
2023-02-24T01:33:50.848Z,10.32
2023-02-24T01:36:20.201Z,10.55
2023-02-24T01:38:49.130Z,9.55
2023-02-24T01:41:19.416Z,10.18
2023-02-24T01:44:01.909Z,12.02
2023-02-24T01:46:33.566Z,10.95
2023-02-24T01:56:15.946Z,10.25
2023-02-24T01:58:42.777Z,9.30
2023-02-24T02:01:10.152Z,9.35
2023-02-24T02:03:38.402Z,10.30
2023-02-24T02:06:07.632Z,11.18
2023-02-24T02:08:38.127Z,11.95
2023-02-24T02:11:10.370Z,11.27
2023-02-24T02:13:39.811Z,10.65
2023-02-24T02:16:18.431Z,12.45
2023-02-24T02:18:56.154Z,10.88
2023-02-24T02:21:44.452Z,11.40
2023-02-24T02:24:40.501Z,10.35
2023-02-24T02:27:20.886Z,10.73
2023-02-24T02:30:06.191Z,9.90
2023-02-24T02:33:10.214Z,13.23
2023-02-24T02:36:06.836Z,13.77
2023-02-24T02:38:43.348Z,12.93
2023-02-24T02:41:28.819Z,15.00
2023-02-24T02:44:32.187Z,17.10
2023-02-24T02:47:03.608Z,17.05
2023-02-24T02:49:38.796Z,18.38
2023-02-24T02:52:42.391Z,17.23
2023-02-24T02:55:16.182Z,15.93
2023-02-24T02:57:47.161Z,16.45
2023-02-24T03:00:21.347Z,17.23
2023-02-24T03:02:51.480Z,18.50
2023-02-24T03:05:20.269Z,16.27
2023-02-24T03:07:51.042Z,15.80
2023-02-24T03:10:22.737Z,16.58
2023-02-24T03:12:55.120Z,16.50
2023-02-24T03:15:23.534Z,16.08
2023-02-24T03:17:56.427Z,15.00
2023-02-24T03:20:43.032Z,14.73
2023-02-24T03:23:17.025Z,14.45
2023-02-24T03:26:21.563Z,14.75
2023-02-24T03:29:18.905Z,15.07
2023-02-24T03:31:59.410Z,14.90
2023-02-24T03:34:51.523Z,13.23
2023-02-24T03:37:25.590Z,16.10
2023-02-24T03:42:20.437Z,16.70
2023-02-24T03:44:47.620Z,17.35
2023-02-24T03:47:19.558Z,19.60
2023-02-24T03:49:47.298Z,19.15
2023-02-24T03:52:41.638Z,20.13
2023-02-24T03:55:17.686Z,20.83
2023-02-24T04:02:16.783Z,20.05
2023-02-24T04:04:55.524Z,21.75
2023-02-24T04:07:37.158Z,21.17
2023-02-24T04:10:22.725Z,20.75
2023-02-24T04:12:56.184Z,20.52
2023-02-24T04:15:26.752Z,21.20
2023-02-24T04:18:09.649Z,21.08
2023-02-24T04:20:37.059Z,20.40
2023-02-24T04:23:08.713Z,20.05
2023-02-24T04:25:35.723Z,20.02
2023-02-24T04:28:07.891Z,21.08
2023-02-24T04:30:36.602Z,20.40
2023-02-24T04:33:02.987Z,20.42
2023-02-24T04:35:29.411Z,18.20
2023-02-24T04:37:56.209Z,19.83
2023-02-24T04:40:23.232Z,19.10
2023-02-24T04:42:51.695Z,18.80
2023-02-24T04:45:24.178Z,18.08
2023-02-24T04:47:56.001Z,19.08
2023-02-24T04:50:25.103Z,19.98
2023-02-24T04:53:02.784Z,19.67
2023-02-24T04:55:33.100Z,17.88
2023-02-24T04:58:02.901Z,18.13
2023-02-24T05:00:35.434Z,19.23
2023-02-24T05:03:06.195Z,19.80
2023-02-24T05:05:35.409Z,17.70
2023-02-24T05:08:10.972Z,19.02
2023-02-24T05:10:38.242Z,17.55
2023-02-24T05:13:06.698Z,18.08
2023-02-24T05:15:33.843Z,18.40
2023-02-24T05:18:01.492Z,18.20
2023-02-24T05:20:47.488Z,18.30
2023-02-24T05:23:14.150Z,17.67
2023-02-24T05:25:43.029Z,17.88
2023-02-24T05:28:10.056Z,18.40
2023-02-24T05:30:36.716Z,18.58
2023-02-24T05:33:03.098Z,19.95
2023-02-24T05:35:32.189Z,20.10
2023-02-24T05:37:59.189Z,19.92
2023-02-24T05:40:25.667Z,21.02
2023-02-24T05:42:52.120Z,22.05
2023-02-24T05:45:18.481Z,23.08
2023-02-24T05:47:47.283Z,22.67
2023-02-24T05:50:13.822Z,21.35
2023-02-24T05:52:40.232Z,22.80
2023-02-24T05:55:07.237Z,23.95
2023-02-24T05:57:35.657Z,24.05
2023-02-24T06:00:12.551Z,23.90
2023-02-24T06:02:39.032Z,24.10
2023-02-24T06:05:08.681Z,23.83
2023-02-24T06:07:35.273Z,24.10
2023-02-24T06:10:01.917Z,23.77
2023-02-24T06:12:31.317Z,23.20
2023-02-24T06:14:58.283Z,24.13
2023-02-24T06:17:25.582Z,22.65
2023-02-24T06:19:53.050Z,24.85
2023-02-24T06:22:21.509Z,24.08
2023-02-24T06:24:49.232Z,24.55
2023-02-24T06:27:21.267Z,25.65
2023-02-24T06:29:51.360Z,25.58
2023-02-24T06:32:19.501Z,26.10
2023-02-24T06:34:46.230Z,25.33
2023-02-24T06:37:14.187Z,25.15
2023-02-24T06:39:40.742Z,24.08
2023-02-24T06:42:08.895Z,25.35
2023-02-24T06:44:36.876Z,23.80
2023-02-24T06:47:03.294Z,25.65
2023-02-24T06:49:29.687Z,25.10
2023-02-24T06:51:57.492Z,25.98
2023-02-24T06:54:30.493Z,25.25
2023-02-24T06:56:58.681Z,26.25
2023-02-24T06:59:28.471Z,25.77
2023-02-24T07:01:56.221Z,24.95
2023-02-24T07:04:27.036Z,25.38
2023-02-24T07:06:57.270Z,24.77
2023-02-24T07:09:26.496Z,25.63
2023-02-24T07:11:55.773Z,25.48
2023-02-24T07:14:24.142Z,24.65
2023-02-24T07:16:58.078Z,24.27
2023-02-24T07:19:27.263Z,23.80
2023-02-24T07:22:01.935Z,23.92
2023-02-24T07:24:33.414Z,23.50
2023-02-24T07:27:02.120Z,22.98
2023-02-24T07:29:30.199Z,24.48
2023-02-24T07:32:05.458Z,22.45
2023-02-24T07:34:33.567Z,23.33
2023-02-24T07:37:02.647Z,22.75
2023-02-24T07:39:29.083Z,22.95
2023-02-24T07:41:55.463Z,22.48
2023-02-24T07:44:24.181Z,22.70
2023-02-24T07:46:51.515Z,22.35
2023-02-24T07:49:22.065Z,22.73
2023-02-24T07:51:52.909Z,23.48
2023-02-24T07:54:21.165Z,23.98
2023-02-24T07:56:56.242Z,24.00
2023-02-24T07:59:24.459Z,19.33
2023-02-24T08:01:50.837Z,18.85
2023-02-24T08:04:20.328Z,28.08
2023-02-24T08:06:50.195Z,26.70
2023-02-24T08:09:20.040Z,24.05
2023-02-24T08:11:52.191Z,22.10
2023-02-24T08:14:35.348Z,21.58
2023-02-24T08:17:05.281Z,20.48
2023-02-24T08:19:39.336Z,19.92
2023-02-24T08:24:55.294Z,20.20
2023-02-24T08:27:25.258Z,20.52
2023-02-24T08:29:59.836Z,19.20
2023-02-24T08:32:46.484Z,19.88
2023-02-24T08:35:15.612Z,19.27
2023-02-24T08:37:47.134Z,20.60
2023-02-24T08:40:34.264Z,18.05
2023-02-24T08:43:25.216Z,18.30
2023-02-24T08:45:59.388Z,17.83
2023-02-24T08:48:38.134Z,18.40
2023-02-24T08:51:17.577Z,17.70
2023-02-24T08:53:46.614Z,18.48
2023-02-24T08:56:23.955Z,18.65
2023-02-24T08:58:57.214Z,18.42
2023-02-24T09:01:34.525Z,18.90
2023-02-24T09:04:10.396Z,18.75
2023-02-24T09:06:43.780Z,17.98
2023-02-24T09:09:17.490Z,17.45
2023-02-24T09:11:46.547Z,17.70
2023-02-24T09:14:26.688Z,17.15
2023-02-24T09:17:03.736Z,16.98
2023-02-24T09:19:51.300Z,17.05
2023-02-24T09:22:31.798Z,16.25
2023-02-24T09:25:19.073Z,14.65
2023-02-24T09:27:52.335Z,15.13
2023-02-24T09:30:36.375Z,16.30
2023-02-24T09:33:19.090Z,16.30
2023-02-24T09:36:09.530Z,15.15
2023-02-24T09:38:59.715Z,16.10
2023-02-24T09:41:56.749Z,15.82
2023-02-24T09:44:27.319Z,17.00
2023-02-24T09:47:01.010Z,16.33
2023-02-24T09:49:49.217Z,17.75
2023-02-24T09:52:17.459Z,15.73
2023-02-24T09:55:06.668Z,16.02
2023-02-24T09:57:55.010Z,15.82
2023-02-24T10:00:25.467Z,15.30
2023-02-24T10:03:19.549Z,16.35
2023-02-24T10:05:58.962Z,16.05
2023-02-24T10:08:31.925Z,16.58
2023-02-24T10:11:06.968Z,15.80
2023-02-24T10:13:37.388Z,15.23
2023-02-24T10:16:07.123Z,15.40
2023-02-24T10:18:45.497Z,13.98
2023-02-24T10:22:00.140Z,15.90
2023-02-24T10:24:37.553Z,14.43
2023-02-24T10:27:17.996Z,14.85
2023-02-24T10:29:55.645Z,14.82
2023-02-24T10:32:51.875Z,13.82
2023-02-24T10:35:21.106Z,13.80
2023-02-24T10:37:49.117Z,14.23
2023-02-24T10:40:43.675Z,12.98
2023-02-24T10:43:17.576Z,13.30
2023-02-24T10:45:45.575Z,11.63
2023-02-24T10:48:40.230Z,12.75
2023-02-24T10:51:19.483Z,12.13
2023-02-24T10:53:53.182Z,11.75
2023-02-24T10:56:39.057Z,11.48
2023-02-24T10:59:30.920Z,10.38
2023-02-24T11:02:16.649Z,11.38
2023-02-24T11:04:58.473Z,10.98
2023-02-24T11:07:25.491Z,10.75
2023-02-24T11:10:12.233Z,11.02
2023-02-24T11:13:09.366Z,10.43
2023-02-24T11:15:57.365Z,11.50
2023-02-24T11:18:26.106Z,10.93
2023-02-24T11:21:04.100Z,11.25
2023-02-24T11:23:34.898Z,10.65
2023-02-24T11:26:12.053Z,10.30
2023-02-24T11:28:50.379Z,10.15
2023-02-24T11:31:21.865Z,10.10
2023-02-24T11:34:12.928Z,9.98
2023-02-24T11:37:16.626Z,10.80
2023-02-24T11:39:45.763Z,10.93
2023-02-24T11:42:17.596Z,9.77
2023-02-24T11:44:53.942Z,10.95
2023-02-24T11:47:26.746Z,9.85
2023-02-24T11:50:14.088Z,10.73
2023-02-24T11:52:43.491Z,10.38
2023-02-24T11:55:42.943Z,10.73
2023-02-24T11:58:30.993Z,10.77
2023-02-24T12:01:04.844Z,11.10
2023-02-24T12:04:05.369Z,9.93
2023-02-24T12:06:58.640Z,10.13
2023-02-24T12:09:30.683Z,11.38
2023-02-24T12:12:01.972Z,10.88
2023-02-24T12:14:40.109Z,11.20
2023-02-24T12:17:49.480Z,10.43
2023-02-24T12:20:21.693Z,10.50
2023-02-24T12:22:58.330Z,10.27
2023-02-24T12:25:37.777Z,10.80
2023-02-24T12:28:14.301Z,10.48
2023-02-24T12:31:00.940Z,10.60
2023-02-24T12:33:42.755Z,10.27
2023-02-24T12:36:30.823Z,9.63
2023-02-24T12:39:15.805Z,10.23
2023-02-24T12:41:52.476Z,10.30
2023-02-24T12:44:31.014Z,11.05
2023-02-24T12:47:11.758Z,9.63
2023-02-24T12:50:11.913Z,9.25
2023-02-24T12:52:56.391Z,10.10
2023-02-24T13:01:03.994Z,10.30
2023-02-24T13:04:03.847Z,10.07
2023-02-24T13:06:53.102Z,10.13
2023-02-24T13:09:22.156Z,9.30
2023-02-24T13:12:16.013Z,9.88
2023-02-24T13:14:42.785Z,10.33
2023-02-24T13:17:09.059Z,9.95
2023-02-24T13:19:35.738Z,9.75
2023-02-24T13:22:27.428Z,9.23
2023-02-24T13:25:09.463Z,11.13
2023-02-24T13:27:38.827Z,10.05
2023-02-24T13:30:14.376Z,10.63
2023-02-24T13:32:44.314Z,9.07
2023-02-24T13:35:16.364Z,9.52
2023-02-24T13:37:45.009Z,9.93
2023-02-24T13:40:23.459Z,9.73
2023-02-24T13:42:57.314Z,10.45
2023-02-24T13:45:32.088Z,9.55
2023-02-24T13:48:26.573Z,10.18
2023-02-24T13:51:02.329Z,10.25
2023-02-24T13:54:07.646Z,10.73
2023-02-24T13:56:52.520Z,10.38
2023-02-24T13:59:24.494Z,10.80
2023-02-24T14:01:58.105Z,9.70
2023-02-24T14:04:30.768Z,9.75
2023-02-24T14:07:00.770Z,9.00
2023-02-24T14:09:48.657Z,9.80
2023-02-24T14:12:19.092Z,8.93
2023-02-24T14:14:51.518Z,9.52
2023-02-24T14:17:28.675Z,8.80
2023-02-24T14:20:22.095Z,7.78
2023-02-24T14:22:53.019Z,8.20
2023-02-24T14:25:22.040Z,8.18
2023-02-24T14:27:50.542Z,7.53
2023-02-24T14:30:30.689Z,8.02
2023-02-24T14:32:57.334Z,8.10
2023-02-24T14:35:30.674Z,7.97
2023-02-24T14:37:57.520Z,7.63
2023-02-24T14:40:25.505Z,7.60
2023-02-24T14:42:54.381Z,6.82
2023-02-24T14:45:25.301Z,7.30
2023-02-24T14:47:55.731Z,7.45
2023-02-24T14:50:30.648Z,7.45
2023-02-24T14:53:10.463Z,6.90
2023-02-24T14:55:42.594Z,6.97
2023-02-24T14:58:21.013Z,6.80
2023-02-24T15:00:50.944Z,6.78
2023-02-24T15:03:23.814Z,6.70
2023-02-24T15:05:52.975Z,7.35
2023-02-24T15:08:34.575Z,6.82
2023-02-24T15:11:02.654Z,6.65
2023-02-24T15:13:46.828Z,7.07
2023-02-24T15:16:26.089Z,6.38
2023-02-24T15:18:55.605Z,6.88
2023-02-24T15:21:39.080Z,6.97
2023-02-24T15:24:19.558Z,7.00
2023-02-24T15:27:13.866Z,6.65
2023-02-24T15:29:41.570Z,5.72
2023-02-24T15:32:16.814Z,7.00
2023-02-24T15:34:45.824Z,6.57
2023-02-24T15:37:19.777Z,6.80
2023-02-24T15:39:46.180Z,7.85
2023-02-24T15:42:28.432Z,6.50
2023-02-24T15:45:00.373Z,6.93
2023-02-24T15:47:31.276Z,6.63
2023-02-24T15:49:57.709Z,6.38
2023-02-24T15:52:26.693Z,6.57
2023-02-24T15:54:54.943Z,6.38
2023-02-24T15:57:21.607Z,6.20
2023-02-24T15:59:48.392Z,5.18
2023-02-24T16:02:19.810Z,5.65
2023-02-24T16:04:47.509Z,5.88
2023-02-24T16:07:19.313Z,5.43
2023-02-24T16:09:46.778Z,5.43
2023-02-24T16:12:16.201Z,5.40
2023-02-24T16:14:43.276Z,4.88
2023-02-24T16:17:19.840Z,5.38
2023-02-24T16:19:46.196Z,5.25
2023-02-24T16:22:12.540Z,5.38
2023-02-24T16:24:38.918Z,5.95
2023-02-24T16:27:06.069Z,5.18
2023-02-24T16:29:32.455Z,5.38
2023-02-24T16:32:00.161Z,5.00
2023-02-24T16:34:26.620Z,5.65
2023-02-24T16:36:52.990Z,5.60
2023-02-24T16:39:19.317Z,4.88
2023-02-24T16:41:45.635Z,5.65
2023-02-24T16:44:12.080Z,5.38
2023-02-24T16:46:41.049Z,4.85
2023-02-24T16:49:10.213Z,5.35
2023-02-24T16:51:39.779Z,5.35
2023-02-24T16:54:06.109Z,5.63
2023-02-24T16:56:35.020Z,5.88
2023-02-24T16:59:01.425Z,5.15
2023-02-24T17:01:27.805Z,5.68
2023-02-24T17:03:54.282Z,5.15
2023-02-24T17:06:22.536Z,6.20
2023-02-24T17:08:50.086Z,5.90
2023-02-24T17:11:19.828Z,5.32
2023-02-24T17:13:46.346Z,5.35
2023-02-24T17:16:13.320Z,6.55
2023-02-24T17:18:39.664Z,6.15
2023-02-24T17:21:06.001Z,5.97
2023-02-24T17:23:32.455Z,5.50
2023-02-24T17:26:00.779Z,5.57
2023-02-24T17:28:27.367Z,6.05
2023-02-24T17:30:53.861Z,6.85
2023-02-24T17:33:20.243Z,6.47
2023-02-24T17:35:47.920Z,6.55
2023-02-24T17:38:22.199Z,5.90
2023-02-24T17:40:48.802Z,5.97
2023-02-24T17:43:15.312Z,5.78
2023-02-24T17:45:44.719Z,5.78
2023-02-24T17:48:12.670Z,6.00
2023-02-24T17:50:42.168Z,6.80
2023-02-24T17:53:08.600Z,5.18
2023-02-24T17:55:34.998Z,5.50
2023-02-24T17:58:01.326Z,5.20
2023-02-24T18:00:28.435Z,5.18
2023-02-24T18:02:55.088Z,4.57
2023-02-24T18:05:21.546Z,4.68
2023-02-24T18:07:48.364Z,4.85
2023-02-24T18:10:14.749Z,5.38
2023-02-24T18:12:41.087Z,4.28
2023-02-24T18:15:09.402Z,4.60
2023-02-24T18:17:37.281Z,4.20
2023-02-24T18:20:05.429Z,3.90
2023-02-24T18:22:31.888Z,4.00
2023-02-24T18:24:59.141Z,4.30
2023-02-24T18:27:25.578Z,3.83
2023-02-24T18:29:51.912Z,4.65
2023-02-24T18:32:18.557Z,3.83
2023-02-24T18:34:45.003Z,4.15
2023-02-24T18:37:11.455Z,4.10
2023-02-24T18:39:37.786Z,3.95
2023-02-24T18:42:04.184Z,3.85
2023-02-24T18:44:31.040Z,4.35
2023-02-24T18:46:57.373Z,4.53
2023-02-24T18:49:23.774Z,4.80
2023-02-24T18:51:50.240Z,5.00
2023-02-24T18:54:16.609Z,4.47
2023-02-24T18:56:43.060Z,5.40
2023-02-24T18:59:09.474Z,5.28
2023-02-24T19:01:38.581Z,4.95
2023-02-24T19:04:06.563Z,5.53
2023-02-24T19:06:33.482Z,5.57
2023-02-24T19:09:01.933Z,5.65
2023-02-24T19:11:29.175Z,5.82
2023-02-24T19:13:56.184Z,6.53
2023-02-24T19:16:22.909Z,6.10
2023-02-24T19:18:50.661Z,5.05
2023-02-24T19:21:17.089Z,5.90
2023-02-24T19:23:43.465Z,6.43
2023-02-24T19:26:21.353Z,7.00
2023-02-24T19:28:48.171Z,6.22
2023-02-24T19:31:18.226Z,5.95
2023-02-24T19:33:45.268Z,6.75
2023-02-24T19:36:12.002Z,7.00
2023-02-24T19:38:41.070Z,7.22
2023-02-24T19:41:08.792Z,6.57
2023-02-24T19:43:35.153Z,6.97
2023-02-24T19:46:06.196Z,6.50
2023-02-24T19:48:33.656Z,6.45
2023-02-24T19:51:06.675Z,6.57
2023-02-24T19:53:33.029Z,6.55
2023-02-24T19:55:59.854Z,7.55
2023-02-24T19:58:26.345Z,7.43
2023-02-24T20:00:52.816Z,6.88
2023-02-24T20:03:20.216Z,7.82
2023-02-24T20:05:46.915Z,7.22
2023-02-24T20:08:13.418Z,7.68
2023-02-24T20:10:40.029Z,7.50
2023-02-24T20:13:06.791Z,7.15
2023-02-24T20:15:34.295Z,7.00
2023-02-24T20:18:04.628Z,7.38
2023-02-24T20:20:31.052Z,7.15
2023-02-24T20:22:57.486Z,7.85
2023-02-24T20:25:24.310Z,7.65
2023-02-24T20:27:50.665Z,7.95
2023-02-24T20:30:17.177Z,7.45
2023-02-24T20:32:43.812Z,7.20
2023-02-24T20:35:10.492Z,8.25
2023-02-24T20:37:36.907Z,7.22
2023-02-24T20:40:03.478Z,8.32
2023-02-24T20:42:29.851Z,8.50
2023-02-24T20:44:56.249Z,7.43
2023-02-24T20:47:22.584Z,8.20
2023-02-24T20:49:48.955Z,8.23
2023-02-24T20:52:15.270Z,7.93
2023-02-24T20:54:43.231Z,7.25
2023-02-24T20:57:09.626Z,7.82
2023-02-24T20:59:39.970Z,7.75
2023-02-24T21:02:06.331Z,7.07
2023-02-24T21:04:32.775Z,7.72
2023-02-24T21:06:59.411Z,8.60
2023-02-24T21:09:25.862Z,8.27
2023-02-24T21:11:52.270Z,8.52
2023-02-24T21:14:18.740Z,7.65
2023-02-24T21:16:49.544Z,7.93
2023-02-24T21:19:17.720Z,8.00
2023-02-24T21:21:44.103Z,7.30
2023-02-24T21:24:10.448Z,7.75
2023-02-24T21:26:36.881Z,7.63
2023-02-24T21:29:03.528Z,8.57
2023-02-24T21:31:29.967Z,7.82
2023-02-24T21:33:56.428Z,8.65
2023-02-24T21:36:25.889Z,7.93
2023-02-24T21:38:52.905Z,7.85
2023-02-24T21:41:21.798Z,7.60
2023-02-24T21:43:51.628Z,8.27
2023-02-24T21:46:18.032Z,7.07
2023-02-24T21:48:44.673Z,7.95
2023-02-24T21:51:12.516Z,7.07
2023-02-24T21:53:40.931Z,6.30
2023-02-24T21:56:19.258Z,4.97
2023-02-24T21:58:56.407Z,4.45
2023-02-24T22:01:25.473Z,3.83
2023-02-24T22:03:55.996Z,3.53
2023-02-24T22:06:23.154Z,2.92
2023-02-24T22:08:49.698Z,3.13
2023-02-24T22:11:17.495Z,2.95
2023-02-24T22:13:44.755Z,2.78
2023-02-24T22:16:18.253Z,3.08
2023-02-24T22:18:46.780Z,3.03
2023-02-24T22:21:18.900Z,2.30
2023-02-24T22:23:46.157Z,2.90
2023-02-24T22:26:12.629Z,2.70
2023-02-24T22:28:40.628Z,2.53
2023-02-24T22:31:08.130Z,3.20
2023-02-24T22:33:36.230Z,3.28
2023-02-24T22:36:06.758Z,3.10
2023-02-24T22:38:33.862Z,3.20
2023-02-24T22:41:01.705Z,3.40
2023-02-24T22:43:28.762Z,3.25
2023-02-24T22:46:06.055Z,3.50
2023-02-24T22:48:34.124Z,4.38
2023-02-24T22:51:02.290Z,4.30
2023-02-24T22:53:29.768Z,3.95
2023-02-24T22:55:56.852Z,4.45
2023-02-24T22:58:24.044Z,4.13
2023-02-24T23:00:52.522Z,4.95
2023-02-24T23:03:24.387Z,4.57
2023-02-24T23:06:02.235Z,4.40
2023-02-24T23:08:30.169Z,4.50
2023-02-24T23:10:56.653Z,4.32
2023-02-24T23:13:23.050Z,4.35
2023-02-24T23:15:49.566Z,4.50
2023-02-24T23:18:16.600Z,4.75
2023-02-24T23:20:44.619Z,5.25
2023-02-24T23:23:11.533Z,4.72
2023-02-24T23:25:38.638Z,5.30
2023-02-24T23:28:05.834Z,5.03
2023-02-24T23:30:32.205Z,4.43
2023-02-24T23:32:59.829Z,4.38
2023-02-24T23:35:26.253Z,4.13
2023-02-24T23:37:52.585Z,3.60
2023-02-24T23:40:25.714Z,4.20
2023-02-24T23:42:52.913Z,3.60
2023-02-24T23:45:19.660Z,3.60
2023-02-24T23:47:46.057Z,3.65
2023-02-24T23:50:13.469Z,3.85
2023-02-24T23:52:39.844Z,3.60
2023-02-24T23:55:06.979Z,3.45
2023-02-24T23:57:33.382Z,3.55
2023-02-24T23:59:59.854Z,3.40
